Time;durP1;ratioP1;P1;durP2;ratioP2;P2;SDS_P1;SDS_P2;PMS_P1;PMS_P2;Temp;Humidity;BMP_temperature;BMP_pressure;BME280_temperature;BME280_humidity;BME280_pressure;Samples;Min_cycle;Max_cycle;Signal;HPM_P1;HPM_P2
2023/08/25 00:10:47;;;;;;;820.20;747.28;;;18.80;85.70;;;;;;6314068;22;20054;-92
2023/08/25 00:13:14;;;;;;;826.28;750.88;;;18.80;85.70;;;;;;6221194;22;20025;-92
2023/08/25 00:35:10;;;;;;;784.70;714.42;;;18.40;86.10;;;;;;6264385;22;20043;-92
2023/08/25 01:00:28;;;;;;;817.95;743.58;;;18.30;86.70;;;;;;6266635;22;20015;-91
2023/08/25 01:02:54;;;;;;;768.03;700.40;;;18.30;86.80;;;;;;6179076;22;20331;-92
2023/08/25 01:05:21;;;;;;;803.05;730.90;;;18.30;86.70;;;;;;6253237;22;20437;-91
2023/08/25 01:16:21;;;;;;;841.13;764.88;;;18.40;86.90;;;;;;6333037;22;20045;-91
2023/08/25 01:18:46;;;;;;;777.42;709.28;;;18.50;86.70;;;;;;6248203;22;20383;-92
2023/08/25 01:21:13;;;;;;;797.97;727.97;;;18.50;86.50;;;;;;6234933;22;20019;-92
2023/08/25 01:27:41;;;;;;;813.17;740.92;;;18.60;86.20;;;;;;6297577;22;20030;-91
2023/08/25 01:42:03;;;;;;;799.38;727.95;;;18.70;85.90;;;;;;6309980;22;20435;-92
2023/08/25 01:48:38;;;;;;;826.55;751.97;;;18.70;85.70;;;;;;6310960;22;20010;-92
2023/08/25 02:06:15;;;;;;;797.63;725.70;;;18.40;86.00;;;;;;6313480;22;20096;-91
2023/08/25 02:16:28;;;;;;;811.95;738.45;;;18.30;86.20;;;;;;6309759;22;20011;-92
2023/08/25 02:18:55;;;;;;;774.33;705.85;;;18.20;86.40;;;;;;6255249;22;20019;-92
2023/08/25 02:21:22;;;;;;;788.15;717.97;;;18.20;86.30;;;;;;6257471;22;20440;-91
2023/08/25 02:24:47;;;;;;;795.20;725.33;;;18.20;86.40;;;;;;6249345;22;20076;-92
2023/08/25 02:27:24;;;;;;;787.53;716.85;;;18.20;86.40;;;;;;6311848;22;20015;-92
2023/08/25 02:44:27;;;;;;;792.03;721.20;;;18.30;86.60;;;;;;6300670;22;20019;-92
2023/08/25 02:46:52;;;;;;;797.33;726.60;;;18.30;86.60;;;;;;6260298;22;20022;-91
2023/08/25 02:57:12;;;;;;;808.03;735.08;;;18.40;86.50;;;;;;6295619;22;20019;-92
2023/08/25 03:15:32;;;;;;;795.58;723.53;;;18.40;86.40;;;;;;6305854;22;20022;-92
2023/08/25 03:18:01;;;;;;;811.47;736.88;;;18.30;86.60;;;;;;6295817;22;20049;-91
2023/08/25 03:32:19;;;;;;;767.85;700.10;;;18.30;86.70;;;;;;6299463;22;20015;-92
2023/08/25 03:34:51;;;;;;;814.58;741.22;;;18.30;86.70;;;;;;6308685;22;20062;-91
2023/08/25 03:38:05;;;;;;;789.45;718.63;;;18.30;86.60;;;;;;6305860;22;20026;-92
2023/08/25 03:44:19;;;;;;;785.53;715.13;;;18.30;86.70;;;;;;6310812;22;20042;-91
2023/08/25 03:50:40;;;;;;;782.88;711.17;;;18.30;86.70;;;;;;6284848;22;20046;-92
2023/08/25 03:54:02;;;;;;;784.97;714.28;;;18.30;86.80;;;;;;6302769;22;20030;-94
2023/08/25 03:56:27;;;;;;;;;;;18.30;86.70;;;;;;6284100;22;20447;-94
2023/08/25 04:03:06;;;;;;;833.58;755.25;;;18.20;86.90;;;;;;6304942;22;20048;-94
2023/08/25 04:09:13;;;;;;;832.67;752.93;;;18.20;86.90;;;;;;6313438;22;20022;-94
2023/08/25 04:11:39;;;;;;;811.67;736.58;;;18.20;87.00;;;;;;6231511;22;20011;-95
2023/08/25 04:17:55;;;;;;;780.78;708.17;;;18.20;87.10;;;;;;6274687;22;20039;-94
2023/08/25 04:20:21;;;;;;;799.55;723.50;;;18.20;87.00;;;;;;6192941;22;20016;-93
2023/08/25 04:22:49;;;;;;;840.28;761.15;;;18.20;87.10;;;;;;6213802;22;20026;-94
2023/08/25 04:25:50;;;;;;;777.15;704.85;;;18.20;87.10;;;;;;6234630;22;20073;-94
2023/08/25 04:32:01;;;;;;;812.07;733.87;;;18.20;87.10;;;;;;6310874;22;20010;-94
2023/08/25 04:34:27;;;;;;;803.13;726.13;;;18.20;87.10;;;;;;6223430;22;20086;-94
2023/08/25 04:37:16;;;;;;;779.10;705.40;;;18.20;87.20;;;;;;6206682;22;20015;-93
2023/08/25 04:39:48;;;;;;;785.97;711.88;;;18.20;87.20;;;;;;6257361;22;20053;-94
2023/08/25 04:42:14;;;;;;;817.95;741.05;;;18.20;87.20;;;;;;6228808;22;20019;-92
2023/08/25 04:44:40;;;;;;;810.40;735.42;;;18.10;87.20;;;;;;6257867;22;20054;-93
2023/08/25 04:47:07;;;;;;;817.55;741.67;;;18.10;87.20;;;;;;6257463;22;20015;-93
2023/08/25 04:49:36;;;;;;;782.88;710.60;;;18.20;87.40;;;;;;6193236;22;20046;-93
2023/08/25 04:52:45;;;;;;;834.97;756.50;;;18.20;87.30;;;;;;6256175;22;20011;-93
2023/08/25 04:55:18;;;;;;;825.58;746.42;;;18.20;87.20;;;;;;6256738;22;20027;-93
2023/08/25 05:01:57;;;;;;;845.88;764.58;;;18.20;87.40;;;;;;6229247;22;20485;-93
2023/08/25 05:11:52;;;;;;;798.13;724.00;;;18.30;87.40;;;;;;6310895;22;20027;-94
2023/08/25 05:14:18;;;;;;;800.17;724.78;;;18.30;87.50;;;;;;6222047;22;20015;-94
2023/08/25 05:17:07;;;;;;;815.05;739.10;;;18.30;87.40;;;;;;6260223;22;20019;-94
2023/08/25 05:26:47;;;;;;;801.20;724.97;;;18.30;87.20;;;;;;6268748;22;20027;-93
2023/08/25 05:29:14;;;;;;;786.72;714.00;;;18.30;87.30;;;;;;6282412;22;20015;-94
2023/08/25 05:35:27;;;;;;;815.90;738.80;;;18.40;87.20;;;;;;6294739;22;20008;-93
2023/08/25 05:37:56;;;;;;;787.42;714.33;;;18.40;87.20;;;;;;6230585;22;20026;-93
2023/08/25 05:41:00;;;;;;;855.53;774.35;;;18.40;87.20;;;;;;6283402;22;20019;-94
2023/08/25 05:43:47;;;;;;;794.63;721.00;;;18.40;87.20;;;;;;6275119;22;20019;-94
2023/08/25 05:46:13;;;;;;;820.25;741.97;;;18.50;87.20;;;;;;6257671;22;20114;-93
2023/08/25 05:48:40;;;;;;;829.40;750.92;;;18.50;87.20;;;;;;6254615;22;20019;-93
2023/08/25 05:51:11;;;;;;;834.63;757.72;;;18.50;87.10;;;;;;6233148;22;20021;-93
2023/08/25 05:53:37;;;;;;;822.90;743.25;;;18.50;87.20;;;;;;6277407;22;20068;-94
2023/08/25 05:56:03;;;;;;;798.60;723.72;;;18.50;87.20;;;;;;6257410;22;20015;-93
2023/08/25 05:58:29;;;;;;;775.53;703.47;;;18.50;87.10;;;;;;6254296;22;20027;-92
2023/08/25 06:01:02;;;;;;;805.83;731.70;;;18.60;87.20;;;;;;6232083;22;20011;-93
2023/08/25 06:03:28;;;;;;;800.40;724.97;;;18.60;87.20;;;;;;6251204;22;20061;-93
2023/08/25 06:05:53;;;;;;;809.97;732.65;;;18.60;87.10;;;;;;6258172;22;20501;-93
2023/08/25 06:08:25;;;;;;;797.67;722.13;;;18.60;87.10;;;;;;6228680;22;20317;-93
2023/08/25 06:11:26;;;;;;;;;;;18.60;87.10;;;;;;6275191;22;20429;-93
2023/08/25 06:13:54;;;;;;;850.65;768.25;;;18.60;87.00;;;;;;6248046;22;19941;-93
2023/08/25 06:16:23;;;;;;;797.55;723.97;;;18.60;87.10;;;;;;6280141;22;20019;-96
2023/08/25 06:18:49;;;;;;;804.20;728.65;;;18.60;87.00;;;;;;6272057;22;20027;-93
2023/08/25 06:21:48;;;;;;;790.60;718.60;;;18.60;87.00;;;;;;6254115;22;20019;-93
2023/08/25 06:24:14;;;;;;;808.15;732.10;;;18.70;86.90;;;;;;6280819;22;20019;-93
2023/08/25 06:26:40;;;;;;;845.05;765.00;;;18.70;87.00;;;;;;6280209;22;20094;-93
2023/08/25 06:29:09;;;;;;;768.25;700.17;;;18.70;86.90;;;;;;6301440;22;20031;-95
2023/08/25 06:31:34;;;;;;;814.33;737.83;;;18.70;86.90;;;;;;6305563;22;20137;-92
2023/08/25 06:34:03;;;;;;;853.92;774.88;;;18.80;86.90;;;;;;6275337;22;20447;-93
2023/08/25 06:36:32;;;;;;;802.08;729.90;;;18.80;86.90;;;;;;6255299;22;20015;-94
2023/08/25 06:38:58;;;;;;;810.97;737.47;;;18.90;86.60;;;;;;6281178;22;20073;-92
2023/08/25 06:41:24;;;;;;;843.58;766.97;;;18.90;86.70;;;;;;6281755;22;20011;-91
2023/08/25 06:43:56;;;;;;;825.17;750.80;;;18.90;86.60;;;;;;6281180;22;20381;-92
2023/08/25 06:46:22;;;;;;;804.15;731.50;;;18.90;86.50;;;;;;6282432;22;20017;-93
2023/08/25 06:48:50;;;;;;;822.72;747.42;;;18.90;86.30;;;;;;6306407;22;20019;-94
2023/08/25 06:52:06;;;;;;;817.00;743.95;;;18.90;86.20;;;;;;6281716;22;20019;-92
2023/08/25 06:54:33;;;;;;;835.80;760.88;;;18.90;86.00;;;;;;6184560;23;20147;-93
2023/08/25 06:56:58;;;;;;;835.75;758.25;;;18.90;86.20;;;;;;6140656;23;20024;-92
2023/08/25 07:03:52;;;;;;;892.88;807.65;;;19.00;86.00;;;;;;6223759;22;20337;-91
2023/08/25 07:06:20;;;;;;;861.67;779.97;;;19.20;85.90;;;;;;6306990;22;20042;-93
2023/08/25 07:08:48;;;;;;;836.03;757.65;;;19.20;85.80;;;;;;6242954;22;20023;-93
2023/08/25 07:11:14;;;;;;;859.63;780.50;;;19.30;85.40;;;;;;6282812;22;20451;-92
2023/08/25 07:13:40;;;;;;;847.33;769.60;;;19.30;85.50;;;;;;6280536;22;20015;-92
2023/08/25 07:16:33;;;;;;;860.97;781.40;;;19.40;85.50;;;;;;6256644;22;20050;-96
2023/08/25 07:18:59;;;;;;;865.70;786.53;;;19.50;85.10;;;;;;6245988;22;20043;-92
2023/08/25 07:21:25;;;;;;;843.95;767.08;;;19.50;84.30;;;;;;6273029;22;20011;-92
2023/08/25 07:23:50;;;;;;;850.33;774.15;;;19.50;84.20;;;;;;6278553;22;20022;-92
2023/08/25 07:26:19;;;;;;;892.67;807.47;;;19.50;84.30;;;;;;6276353;22;20443;-93
2023/08/25 07:28:46;;;;;;;893.33;809.40;;;19.50;84.30;;;;;;6275742;22;20019;-95
2023/08/25 07:31:12;;;;;;;870.33;789.53;;;19.50;84.10;;;;;;6283380;22;20011;-92
2023/08/25 07:33:39;;;;;;;898.00;811.22;;;19.50;84.20;;;;;;6278374;22;20064;-93
2023/08/25 07:36:09;;;;;;;899.28;813.92;;;19.50;83.90;;;;;;6282649;22;20026;-96
2023/08/25 07:38:35;;;;;;;884.23;803.67;;;19.50;83.80;;;;;;6256062;22;20104;-92
2023/08/25 07:41:01;;;;;;;885.25;803.65;;;19.50;83.60;;;;;;6282213;22;20105;-92
2023/08/25 07:43:29;;;;;;;884.55;802.75;;;19.50;83.60;;;;;;6256339;22;20041;-92
2023/08/25 07:45:56;;;;;;;875.65;795.15;;;19.50;83.50;;;;;;6283102;22;20023;-90
2023/08/25 07:48:26;;;;;;;861.65;782.83;;;19.50;83.60;;;;;;6302792;22;20016;-92
2023/08/25 07:50:53;;;;;;;924.58;834.78;;;19.50;83.50;;;;;;6256154;22;20026;-92
2023/08/25 07:53:22;;;;;;;880.45;800.70;;;19.50;83.40;;;;;;6255155;22;20019;-92
2023/08/25 07:55:51;;;;;;;873.33;793.63;;;19.50;83.40;;;;;;6252691;22;20038;-92
2023/08/25 07:58:17;;;;;;;882.42;798.78;;;19.50;83.40;;;;;;6275958;22;20015;-93
2023/08/25 08:00:44;;;;;;;901.55;816.60;;;19.50;83.40;;;;;;6282059;22;20015;-92
2023/08/25 08:03:18;;;;;;;903.22;817.65;;;19.50;83.30;;;;;;6254258;22;20390;-92
2023/08/25 08:05:45;;;;;;;901.92;813.75;;;19.50;83.20;;;;;;6308448;22;20065;-91
2023/08/25 08:08:11;;;;;;;872.17;792.30;;;19.50;83.20;;;;;;6250810;22;20171;-92
2023/08/25 08:10:37;;;;;;;916.28;828.08;;;19.50;83.20;;;;;;6310179;22;20022;-90
2023/08/25 08:13:06;;;;;;;871.85;791.83;;;19.50;83.10;;;;;;6254080;22;20077;-92
2023/08/25 08:15:45;;;;;;;895.97;812.05;;;19.50;82.90;;;;;;6241356;22;20023;-92
2023/08/25 08:18:16;;;;;;;893.67;808.17;;;19.50;82.70;;;;;;6280195;22;20394;-91
2023/08/25 08:24:21;;;;;;;893.42;807.42;;;19.60;82.10;;;;;;6308900;22;20030;-90
2023/08/25 08:26:53;;;;;;;924.05;836.08;;;19.60;82.20;;;;;;6259003;22;20011;-92
2023/08/25 08:33:11;;;;;;;890.53;803.03;;;19.70;81.70;;;;;;6299225;22;20015;-93
2023/08/25 08:36:31;;;;;;;936.33;840.88;;;19.70;81.90;;;;;;6258255;22;20511;-91
2023/08/25 08:38:58;;;;;;;908.70;815.05;;;19.80;81.50;;;;;;6130648;23;20022;-92
2023/08/25 08:41:47;;;;;;;876.67;793.53;;;19.90;81.50;;;;;;6132017;23;20025;-92
2023/08/25 08:44:18;;;;;;;929.95;835.80;;;19.90;81.10;;;;;;6139759;23;20463;-92
2023/08/25 08:46:45;;;;;;;924.00;833.80;;;19.90;81.30;;;;;;6156281;23;20093;-93
2023/08/25 08:49:52;;;;;;;922.13;832.25;;;20.00;81.40;;;;;;6131488;23;20033;-92
2023/08/25 08:52:19;;;;;;;937.72;846.55;;;20.10;81.30;;;;;;6134736;23;20088;-91
2023/08/25 08:54:48;;;;;;;863.55;785.38;;;20.20;81.20;;;;;;6272697;22;20102;-92
2023/08/25 09:01:03;;;;;;;917.35;828.08;;;20.30;80.40;;;;;;6309702;22;20069;-92
2023/08/25 09:03:37;;;;;;;886.63;803.17;;;20.50;80.50;;;;;;6236106;22;20027;-93
2023/08/25 09:06:03;;;;;;;875.75;795.03;;;20.50;80.20;;;;;;6284569;22;20019;-91
2023/08/25 09:12:45;;;;;;;912.88;827.50;;;20.50;79.60;;;;;;6311868;22;20086;-92
2023/08/25 09:15:27;;;;;;;895.80;811.35;;;20.50;79.50;;;;;;6285081;22;20022;-95
2023/08/25 09:21:54;;;;;;;;;;;20.40;79.20;;;;;;6180179;23;20040;-92
2023/08/25 09:27:57;;;;;;;899.85;815.78;;;20.50;79.10;;;;;;6250860;22;20073;-92
2023/08/25 09:30:50;;;;;;;873.20;794.03;;;20.50;79.40;;;;;;6228662;22;20020;-91
2023/08/25 09:33:17;;;;;;;879.85;798.35;;;20.50;79.20;;;;;;6195192;22;20090;-92
2023/08/25 09:43:03;;;;;;;841.95;761.70;;;20.50;79.30;;;;;;6167391;23;20028;-92
2023/08/25 09:45:33;;;;;;;904.72;817.17;;;20.60;79.30;;;;;;6159001;23;20018;-92
2023/08/25 09:48:20;;;;;;;907.30;820.95;;;20.60;79.10;;;;;;6158223;23;20024;-93
2023/08/25 09:50:46;;;;;;;888.00;804.45;;;20.70;78.70;;;;;;6252902;22;20015;-93
2023/08/25 09:53:20;;;;;;;875.67;798.67;;;20.60;78.70;;;;;;6208996;22;20057;-93
2023/08/25 09:56:06;;;;;;;886.08;803.05;;;20.60;78.60;;;;;;6273748;22;20016;-92
2023/08/25 09:58:33;;;;;;;889.13;806.80;;;20.60;78.50;;;;;;6223041;22;20093;-91
2023/08/25 10:01:06;;;;;;;857.95;781.35;;;20.60;78.60;;;;;;6199523;22;20070;-92
2023/08/25 10:03:33;;;;;;;893.92;811.88;;;20.50;78.70;;;;;;6249855;22;20335;-93
2023/08/25 10:06:01;;;;;;;858.78;780.83;;;20.50;78.90;;;;;;6226958;22;20030;-92
2023/08/25 10:08:38;;;;;;;877.20;795.65;;;20.50;78.70;;;;;;6198573;22;20020;-92
2023/08/25 10:11:11;;;;;;;887.25;806.28;;;20.50;78.40;;;;;;6228903;22;20149;-92
2023/08/25 10:13:39;;;;;;;873.55;791.63;;;20.50;78.60;;;;;;6249701;22;20030;-91
2023/08/25 10:16:06;;;;;;;874.50;794.67;;;20.50;78.60;;;;;;6200044;22;20019;-93
2023/08/25 10:18:38;;;;;;;888.35;805.67;;;20.50;78.30;;;;;;6218441;22;20016;-91
2023/08/25 10:21:09;;;;;;;916.22;825.63;;;20.50;78.30;;;;;;6262183;22;20026;-92
2023/08/25 10:23:37;;;;;;;954.53;854.93;;;20.50;78.40;;;;;;6296987;22;20023;-93
2023/08/25 10:26:08;;;;;;;911.90;823.85;;;20.60;78.50;;;;;;6279313;22;20095;-92
2023/08/25 10:28:37;;;;;;;923.10;832.13;;;20.60;78.50;;;;;;6266572;22;20145;-92
2023/08/25 10:31:04;;;;;;;951.58;855.42;;;20.60;78.50;;;;;;6255880;22;20015;-93
2023/08/25 10:33:54;;;;;;;897.15;811.55;;;20.60;78.30;;;;;;6219499;22;20440;-93
2023/08/25 10:36:23;;;;;;;912.17;823.00;;;20.60;77.90;;;;;;6299522;22;20053;-95
2023/08/25 10:38:55;;;;;;;945.58;853.47;;;20.60;78.30;;;;;;6272260;22;20023;-93
2023/08/25 10:41:44;;;;;;;905.47;819.83;;;20.60;78.50;;;;;;6274459;22;20026;-96
2023/08/25 10:44:20;;;;;;;938.08;844.80;;;20.60;78.30;;;;;;6251867;22;20035;-92
2023/08/25 10:46:46;;;;;;;908.15;819.92;;;20.70;78.30;;;;;;6246186;22;20015;-95
2023/08/25 10:49:12;;;;;;;938.42;846.60;;;20.70;78.40;;;;;;6250869;22;20019;-92
2023/08/25 10:51:39;;;;;;;912.08;822.42;;;20.70;78.30;;;;;;6256572;22;20513;-93
2023/08/25 10:54:43;;;;;;;916.58;826.55;;;20.70;78.30;;;;;;6285861;22;20019;-94
2023/08/25 10:57:18;;;;;;;930.10;837.63;;;20.70;78.30;;;;;;6282646;22;20335;-93
2023/08/25 10:59:59;;;;;;;899.83;812.67;;;20.80;78.40;;;;;;6250391;22;20023;-93
2023/08/25 11:02:35;;;;;;;962.45;863.17;;;20.90;78.30;;;;;;6286484;22;20050;-93
2023/08/25 11:05:41;;;;;;;;;;;;;;;;;;;;;
2023/08/25 11:08:26;;;;;;;970.65;869.85;;;20.80;77.00;;;;;;6299033;22;20477;-93
2023/08/25 11:11:18;;;;;;;930.85;836.78;;;20.80;77.20;;;;;;6299347;22;20050;-93
2023/08/25 11:13:44;;;;;;;927.83;835.83;;;20.60;77.40;;;;;;6221877;22;20011;-92
2023/08/25 11:16:11;;;;;;;889.13;805.97;;;20.60;77.90;;;;;;6200018;22;20058;-92
2023/08/25 11:18:44;;;;;;;920.33;830.08;;;20.50;78.10;;;;;;6222419;22;20059;-91
2023/08/25 11:25:18;;;;;;;882.42;796.38;;;20.60;78.00;;;;;;6237230;22;20038;-94
2023/08/25 11:27:51;;;;;;;935.65;837.78;;;20.60;77.70;;;;;;6230586;22;20523;-95
2023/08/25 11:30:18;;;;;;;922.88;830.85;;;20.60;77.90;;;;;;6198052;22;20015;-92
2023/08/25 11:33:26;;;;;;;911.05;821.58;;;20.60;77.90;;;;;;6205142;22;20023;-93
2023/08/25 11:35:55;;;;;;;927.90;836.85;;;20.70;78.20;;;;;;6237644;22;20018;-91
2023/08/25 11:38:21;;;;;;;926.85;832.60;;;20.70;78.30;;;;;;6225494;22;20095;-93
2023/08/25 11:40:47;;;;;;;935.38;843.33;;;20.60;78.30;;;;;;6229472;22;20055;-94
2023/08/25 11:43:13;;;;;;;901.38;815.45;;;20.60;78.30;;;;;;6229700;22;20023;-91
2023/08/25 11:45:41;;;;;;;918.75;827.45;;;20.60;78.30;;;;;;6230472;22;20023;-91
2023/08/25 11:48:13;;;;;;;915.30;827.42;;;20.60;78.20;;;;;;6222622;22;20011;-93
2023/08/25 11:50:48;;;;;;;903.10;820.63;;;20.50;78.30;;;;;;6231739;22;20021;-92
2023/08/25 11:53:17;;;;;;;933.72;841.03;;;20.60;78.60;;;;;;6282153;22;20073;-91
2023/08/25 13:20:51;;;;;;;876.28;789.28;;;21.30;77.40;;;;;;6293986;22;20027;-92
2023/08/25 13:34:55;;;;;;;882.47;799.60;;;21.00;77.50;;;;;;6234794;23;20019;-91
2023/08/25 13:52:18;;;;;;;904.63;812.90;;;20.70;77.50;;;;;;6250079;23;20011;-92
2023/08/25 13:54:46;;;;;;;888.42;800.80;;;20.60;77.80;;;;;;6166761;23;20020;-92
2023/08/25 13:57:12;;;;;;;930.05;834.65;;;20.60;77.80;;;;;;6196649;23;20325;-91
2023/08/25 14:07:25;;;;;;;919.42;825.28;;;20.60;77.70;;;;;;6247763;23;20005;-93
2023/08/25 14:21:53;;;;;;;930.00;832.05;;;20.60;77.60;;;;;;6186175;23;20113;-92
2023/08/25 14:40:08;;;;;;;851.50;765.25;;;20.50;77.40;;;;;;6253191;23;20007;-91
2023/08/25 14:42:37;;;;;;;871.45;784.65;;;20.50;77.20;;;;;;6219264;22;20018;-93
2023/08/25 14:45:07;;;;;;;961.35;859.20;;;20.30;77.30;;;;;;6222402;23;20027;-93
2023/08/25 14:47:42;;;;;;;907.40;813.78;;;20.30;77.50;;;;;;6197633;23;20020;-93
2023/08/25 14:50:08;;;;;;;908.20;813.42;;;20.30;77.60;;;;;;6197442;23;20016;-92
2023/08/25 14:56:49;;;;;;;853.03;769.22;;;20.30;77.20;;;;;;6251129;23;20061;-92
2023/08/25 14:59:21;;;;;;;888.35;799.95;;;20.30;77.20;;;;;;6245129;23;20099;-94
2023/08/25 15:01:48;;;;;;;876.72;788.35;;;20.30;77.30;;;;;;6198829;23;20407;-93
2023/08/25 15:04:14;;;;;;;931.60;834.10;;;20.30;77.10;;;;;;6232505;22;20055;-93
2023/08/25 15:06:44;;;;;;;870.78;787.80;;;20.20;77.20;;;;;;6250323;22;20074;-94
2023/08/25 15:09:09;;;;;;;848.22;765.50;;;20.20;77.20;;;;;;6276929;22;20100;-92
2023/08/25 15:11:35;;;;;;;890.33;799.35;;;20.10;77.30;;;;;;6174708;23;20043;-93
2023/08/25 15:14:09;;;;;;;902.50;809.90;;;20.10;77.30;;;;;;6205212;23;20016;-94
2023/08/25 15:16:40;;;;;;;918.47;824.28;;;20.10;77.50;;;;;;6246259;22;20020;-93
2023/08/25 15:19:15;;;;;;;874.92;787.40;;;20.00;77.50;;;;;;6204370;22;20040;-93
2023/08/25 15:21:46;;;;;;;881.42;792.08;;;20.00;77.60;;;;;;6196460;23;20019;-92
2023/08/25 15:24:12;;;;;;;894.00;803.70;;;20.00;77.50;;;;;;6204923;22;20091;-92
2023/08/25 15:26:39;;;;;;;884.17;795.30;;;19.90;77.70;;;;;;6230304;22;20015;-93
2023/08/25 15:29:40;;;;;;;906.75;814.00;;;19.90;77.80;;;;;;6230559;22;20348;-92
2023/08/25 15:32:05;;;;;;;870.63;781.33;;;19.90;77.90;;;;;;6256304;22;20470;-93
2023/08/25 15:34:31;;;;;;;889.58;799.13;;;19.80;78.00;;;;;;6242003;22;20023;-92
2023/08/25 15:36:57;;;;;;;840.65;758.80;;;19.70;78.00;;;;;;6255902;22;20007;-92
2023/08/25 15:47:25;;;;;;;865.15;778.67;;;19.70;78.20;;;;;;6309767;22;20294;-92
2023/08/25 15:49:51;;;;;;;872.43;785.60;;;19.70;78.20;;;;;;6272468;22;20038;-92
2023/08/25 15:52:22;;;;;;;903.65;810.83;;;19.70;78.20;;;;;;6231749;22;20436;-89
2023/08/25 16:10:13;;;;;;;927.28;826.45;;;19.70;77.90;;;;;;6281159;22;20341;-93
2023/08/25 16:12:43;;;;;;;861.15;776.92;;;19.70;78.00;;;;;;6287555;22;20023;-91
2023/08/25 16:15:11;;;;;;;816.92;737.17;;;19.70;78.10;;;;;;6262515;22;20080;-91
2023/08/25 16:21:40;;;;;;;863.08;775.63;;;19.80;78.10;;;;;;6252802;22;20023;-91
2023/08/25 16:24:07;;;;;;;858.03;771.95;;;19.90;78.10;;;;;;6280999;22;20099;-93
2023/08/25 16:26:33;;;;;;;907.03;814.65;;;19.90;78.20;;;;;;6209983;22;20098;-93
2023/08/25 16:36:41;;;;;;;902.25;811.63;;;20.00;77.70;;;;;;6301863;22;20018;-91
2023/08/25 16:42:47;;;;;;;879.25;794.25;;;20.00;77.80;;;;;;6312491;22;20568;-93
2023/08/25 16:53:02;;;;;;;892.28;801.13;;;19.90;77.70;;;;;;6307961;22;20057;-91
2023/08/25 16:59:22;;;;;;;865.90;780.13;;;19.80;77.70;;;;;;6306559;22;20023;-91
2023/08/25 17:02:03;;;;;;;893.92;804.83;;;19.80;77.80;;;;;;6232329;22;20015;-91
2023/08/25 17:04:44;;;;;;;897.50;805.63;;;19.70;77.80;;;;;;6207681;22;20076;-91
2023/08/25 17:07:17;;;;;;;883.97;795.38;;;19.70;77.80;;;;;;6231330;22;20041;-91
2023/08/25 17:09:43;;;;;;;903.33;814.28;;;19.70;78.00;;;;;;6234247;22;20019;-90
2023/08/25 17:12:38;;;;;;;984.22;874.10;;;19.70;78.00;;;;;;6256874;22;20023;-91
2023/08/25 17:19:26;;;;;;;865.60;778.88;;;19.50;78.20;;;;;;6308416;22;20042;-91
2023/08/25 17:22:07;;;;;;;929.38;835.42;;;19.50;78.10;;;;;;6282239;22;20511;-91
2023/08/25 17:28:15;;;;;;;878.67;789.78;;;19.50;78.20;;;;;;6264290;22;20027;-94
2023/08/25 17:30:41;;;;;;;940.05;840.70;;;19.50;78.30;;;;;;6256519;22;20030;-94
2023/08/25 17:33:07;;;;;;;894.80;803.63;;;19.50;78.30;;;;;;6226631;22;20020;-93
2023/08/25 17:36:19;;;;;;;917.22;821.08;;;19.50;78.30;;;;;;6205854;22;20016;-92
2023/08/25 18:06:16;;;;;;;854.72;771.05;;;19.30;78.30;;;;;;6319402;22;20060;-93
2023/08/25 18:08:42;;;;;;;887.40;800.55;;;19.20;78.50;;;;;;6260261;22;20073;-93
2023/08/25 18:11:08;;;;;;;838.67;758.28;;;19.20;78.60;;;;;;6206600;22;20015;-93
2023/08/25 18:30:10;;;;;;;875.25;788.92;;;18.90;79.10;;;;;;6261595;22;21165;-93
2023/08/25 18:37:08;;;;;;;899.78;810.08;;;18.80;79.30;;;;;;6247184;23;20024;-92
2023/08/25 18:44:14;;;;;;;880.27;793.27;;;18.80;79.50;;;;;;6242730;22;20036;-95
2023/08/25 18:50:31;;;;;;;906.08;813.45;;;18.70;79.50;;;;;;6246713;23;20056;-93
2023/08/25 18:52:58;;;;;;;920.47;827.10;;;18.60;79.60;;;;;;6169588;23;20091;-93
2023/08/25 18:55:24;;;;;;;907.65;815.95;;;18.60;79.60;;;;;;6171168;23;20027;-93
2023/08/25 18:57:50;;;;;;;965.78;859.70;;;18.60;79.60;;;;;;6191826;23;20394;-93
2023/08/25 19:00:22;;;;;;;921.78;822.95;;;18.60;79.60;;;;;;6253569;22;20062;-93
2023/08/25 19:03:25;;;;;;;913.13;817.55;;;18.50;79.70;;;;;;6131452;23;20351;-93
2023/08/25 19:06:28;;;;;;;918.75;819.58;;;18.50;79.60;;;;;;6125021;23;20022;-92
2023/08/25 19:08:55;;;;;;;886.53;799.00;;;18.40;79.60;;;;;;6102775;23;20025;-93
2023/08/25 19:11:21;;;;;;;939.38;835.45;;;18.30;79.70;;;;;;6080581;23;20018;-93
2023/08/25 19:13:48;;;;;;;911.80;821.28;;;18.30;79.70;;;;;;6129335;23;20055;-94
2023/08/25 19:19:47;;;;;;;947.92;846.22;;;18.20;79.80;;;;;;6144791;23;20075;-91
2023/08/25 19:22:13;;;;;;;938.03;844.00;;;18.20;79.90;;;;;;6156392;23;20362;-91
2023/08/25 19:24:39;;;;;;;937.70;837.35;;;18.10;79.90;;;;;;6105001;23;20554;-92
2023/08/25 19:27:04;;;;;;;873.28;785.78;;;18.10;80.00;;;;;;6120591;23;20027;-91
2023/08/25 19:29:30;;;;;;;869.90;785.33;;;18.00;80.10;;;;;;6130317;23;20624;-92
2023/08/25 19:32:00;;;;;;;897.53;803.83;;;18.00;80.30;;;;;;6131595;23;20024;-91
2023/08/25 19:34:26;;;;;;;847.17;761.90;;;18.00;80.50;;;;;;6169361;23;20024;-91
2023/08/25 19:36:53;;;;;;;890.28;803.20;;;18.00;80.50;;;;;;6220787;22;20510;-92
2023/08/25 19:39:37;;;;;;;897.45;809.17;;;18.00;80.50;;;;;;6200951;22;20027;-93
2023/08/25 20:08:15;;;;;;;845.08;763.05;;;17.80;80.80;;;;;;6175428;22;20026;-93
2023/08/25 20:10:41;;;;;;;871.78;784.50;;;17.80;80.90;;;;;;6230151;22;20324;-91
2023/08/25 20:13:07;;;;;;;879.88;788.97;;;17.80;80.90;;;;;;6230883;22;20023;-92
2023/08/25 20:15:34;;;;;;;905.83;813.22;;;17.80;81.00;;;;;;6281968;22;20516;-92
2023/08/25 20:18:00;;;;;;;846.60;763.03;;;17.80;81.10;;;;;;6225065;22;20051;-92
2023/08/25 20:20:26;;;;;;;902.55;809.67;;;17.80;81.20;;;;;;6255669;22;20098;-93
2023/08/25 20:22:51;;;;;;;886.83;794.90;;;17.80;81.20;;;;;;6227239;22;20011;-92
2023/08/25 20:25:19;;;;;;;884.38;793.90;;;17.80;81.20;;;;;;6230622;22;20015;-93
2023/08/25 20:27:44;;;;;;;866.97;779.95;;;17.70;81.30;;;;;;6251381;22;20326;-92
2023/08/25 20:30:10;;;;;;;911.55;814.55;;;17.70;81.40;;;;;;6230277;22;20015;-93
2023/08/25 20:32:36;;;;;;;871.80;785.88;;;17.60;81.50;;;;;;6231548;22;20026;-92
2023/08/25 20:35:04;;;;;;;847.78;766.67;;;17.60;81.70;;;;;;6256723;22;20019;-92
2023/08/25 20:37:30;;;;;;;878.58;792.17;;;17.60;81.70;;;;;;6205321;22;20026;-92
2023/08/25 20:39:59;;;;;;;874.03;790.65;;;17.50;81.90;;;;;;6257358;22;20015;-92
2023/08/25 20:42:25;;;;;;;869.40;784.90;;;17.50;82.00;;;;;;6226338;22;20041;-94
2023/08/25 20:44:52;;;;;;;874.95;790.40;;;17.50;81.90;;;;;;6206240;22;20443;-93
2023/08/25 20:47:17;;;;;;;848.85;768.05;;;17.50;81.90;;;;;;6254721;22;20015;-92
2023/08/25 20:49:44;;;;;;;905.55;815.22;;;17.50;82.20;;;;;;6230030;22;20019;-93
2023/08/25 20:52:10;;;;;;;872.75;787.45;;;17.50;82.40;;;;;;6227121;22;20053;-93
2023/08/25 20:54:37;;;;;;;899.40;812.55;;;17.50;82.50;;;;;;6205854;22;20023;-91
2023/08/25 20:57:04;;;;;;;874.35;789.17;;;17.50;82.60;;;;;;6225656;22;20432;-91
2023/08/25 20:59:31;;;;;;;880.05;795.08;;;17.50;82.60;;;;;;6257162;22;20026;-92
2023/08/25 21:01:57;;;;;;;895.42;808.42;;;17.50;82.70;;;;;;6256334;22;20012;-93
2023/08/25 21:04:23;;;;;;;881.60;797.58;;;17.50;82.70;;;;;;6202855;22;20095;-93
2023/08/25 21:06:49;;;;;;;846.03;767.05;;;17.50;82.70;;;;;;6229281;22;20380;-94
2023/08/25 21:09:14;;;;;;;878.03;794.47;;;17.50;82.70;;;;;;6228745;22;20344;-92
2023/08/25 21:11:42;;;;;;;870.00;788.70;;;17.50;82.60;;;;;;6231178;22;20043;-93
2023/08/25 21:14:09;;;;;;;826.42;752.30;;;17.50;82.60;;;;;;6198565;22;20023;-93
2023/08/25 21:17:17;;;;;;;774.45;705.58;;;17.50;82.30;;;;;;6229671;22;20148;-94
2023/08/25 21:19:43;;;;;;;813.42;738.42;;;17.60;82.40;;;;;;6253741;22;20102;-92
2023/08/25 21:22:08;;;;;;;858.67;778.55;;;17.60;82.40;;;;;;6240681;22;20054;-92
2023/08/25 21:25:01;;;;;;;856.78;776.30;;;17.60;82.40;;;;;;6230890;22;20043;-92
2023/08/25 21:27:27;;;;;;;843.45;765.00;;;17.60;82.30;;;;;;6253582;22;20101;-92